createdAt,value
2022-12-31T00:01:12.888Z,21.03
2022-12-31T00:03:44.909Z,22.80
2022-12-31T00:06:21.202Z,22.63
2022-12-31T00:08:50.659Z,24.20
2022-12-31T00:11:19.501Z,22.80
2022-12-31T00:13:51.275Z,22.47
2022-12-31T00:16:22.662Z,24.27
2022-12-31T00:18:59.247Z,23.10
2022-12-31T00:21:28.886Z,22.87
2022-12-31T00:23:58.644Z,22.73
2022-12-31T00:26:30.340Z,23.60
2022-12-31T00:29:00.514Z,22.50
2022-12-31T00:31:30.747Z,24.57
2022-12-31T00:34:01.212Z,22.30
2022-12-31T00:36:32.150Z,21.97
2022-12-31T00:39:02.734Z,22.00
2022-12-31T00:41:31.681Z,23.90
2022-12-31T00:44:00.632Z,23.73
2022-12-31T00:46:29.252Z,23.70
2022-12-31T00:48:57.850Z,23.97
2022-12-31T00:51:28.442Z,24.60
2022-12-31T00:53:58.227Z,24.27
2022-12-31T00:56:29.270Z,22.47
2022-12-31T00:58:58.536Z,24.07
2022-12-31T01:01:29.345Z,23.93
2022-12-31T01:04:01.073Z,23.40
2022-12-31T01:06:30.969Z,23.53
2022-12-31T01:09:02.231Z,24.60
2022-12-31T01:11:33.985Z,25.33
2022-12-31T01:14:07.659Z,25.67
2022-12-31T01:16:38.687Z,25.50
2022-12-31T01:19:09.258Z,26.40
2022-12-31T01:21:41.340Z,25.93
2022-12-31T01:24:11.831Z,25.77
2022-12-31T01:26:41.012Z,26.30
2022-12-31T01:29:10.880Z,24.97
2022-12-31T01:31:40.404Z,24.90
2022-12-31T01:34:11.556Z,22.07
2022-12-31T01:36:41.919Z,24.17
2022-12-31T01:39:12.752Z,24.23
2022-12-31T01:41:42.911Z,24.17
2022-12-31T01:44:48.658Z,26.00
2022-12-31T01:47:21.197Z,25.83
2022-12-31T01:49:52.799Z,25.30
2022-12-31T01:52:25.585Z,27.60
2022-12-31T01:55:02.330Z,28.20
2022-12-31T01:57:31.977Z,26.77
2022-12-31T02:00:01.847Z,24.07
2022-12-31T02:02:33.580Z,27.63
2022-12-31T02:05:06.840Z,28.40
2022-12-31T02:07:36.741Z,27.40
2022-12-31T02:10:08.055Z,28.40
2022-12-31T02:12:36.687Z,26.23
2022-12-31T02:15:05.964Z,25.57
2022-12-31T02:17:43.885Z,26.37
2022-12-31T02:20:52.412Z,27.17
2022-12-31T02:23:51.653Z,27.07
2022-12-31T02:26:44.816Z,29.37
2022-12-31T02:29:58.022Z,33.00
2022-12-31T02:32:36.277Z,32.80
2022-12-31T02:35:11.005Z,33.33
2022-12-31T02:37:43.237Z,33.53
2022-12-31T02:40:18.549Z,34.50
2022-12-31T02:42:53.319Z,34.97
2022-12-31T02:45:33.468Z,31.93
2022-12-31T02:48:36.555Z,33.90
2022-12-31T02:51:20.342Z,34.07
2022-12-31T02:54:06.308Z,36.83
2022-12-31T02:56:43.140Z,35.40
2022-12-31T02:59:35.205Z,33.50
2022-12-31T03:02:19.387Z,35.63
2022-12-31T03:04:53.533Z,35.80
2022-12-31T03:07:24.301Z,34.77
2022-12-31T03:09:53.174Z,36.47
2022-12-31T03:12:42.137Z,37.17
2022-12-31T03:15:20.183Z,36.10
2022-12-31T03:17:51.437Z,36.90
2022-12-31T03:20:36.886Z,36.70
2022-12-31T03:23:07.999Z,38.50
2022-12-31T03:25:35.775Z,34.80
2022-12-31T03:28:09.573Z,35.00
2022-12-31T03:30:39.304Z,34.87
2022-12-31T03:33:08.714Z,31.40
2022-12-31T03:35:40.611Z,29.20
2022-12-31T03:38:09.624Z,30.23
2022-12-31T03:40:41.145Z,30.63
2022-12-31T03:43:10.088Z,29.27
2022-12-31T03:45:39.041Z,27.33
2022-12-31T03:48:10.144Z,27.00
2022-12-31T03:50:40.014Z,28.13
2022-12-31T03:53:09.169Z,24.93
2022-12-31T03:55:40.553Z,26.00
2022-12-31T03:58:09.149Z,26.60
2022-12-31T04:00:37.830Z,26.93
2022-12-31T04:03:07.842Z,26.50
2022-12-31T04:05:36.865Z,25.63
2022-12-31T04:08:06.882Z,24.50
2022-12-31T04:10:35.426Z,25.43
2022-12-31T04:13:04.811Z,23.10
2022-12-31T04:15:33.516Z,24.43
2022-12-31T04:18:02.003Z,22.20
2022-12-31T04:20:30.549Z,24.33
2022-12-31T04:22:58.982Z,23.73
2022-12-31T04:25:28.801Z,23.77
2022-12-31T04:27:59.713Z,23.93
2022-12-31T04:30:28.185Z,23.57
2022-12-31T04:32:56.646Z,23.23
2022-12-31T04:35:25.199Z,25.20
2022-12-31T04:37:54.181Z,22.73
2022-12-31T04:40:24.395Z,24.23
2022-12-31T04:42:54.185Z,23.77
2022-12-31T04:45:22.626Z,23.87
2022-12-31T04:47:51.139Z,21.37
2022-12-31T04:50:19.653Z,22.70
2022-12-31T04:52:48.232Z,22.23
2022-12-31T04:55:16.794Z,22.90
2022-12-31T04:57:46.641Z,21.23
2022-12-31T05:00:18.878Z,20.93
2022-12-31T05:02:50.453Z,21.90
2022-12-31T05:05:21.667Z,22.80
2022-12-31T05:07:51.186Z,22.37
2022-12-31T05:10:21.128Z,23.20
2022-12-31T05:12:49.610Z,23.50
2022-12-31T05:15:19.598Z,23.57
2022-12-31T05:17:48.032Z,24.57
2022-12-31T05:20:16.573Z,22.43
2022-12-31T05:22:45.088Z,23.80
2022-12-31T05:25:13.516Z,22.97
2022-12-31T05:27:45.167Z,24.03
2022-12-31T05:30:15.747Z,23.07
2022-12-31T05:32:46.025Z,23.97
2022-12-31T05:35:17.031Z,24.20
2022-12-31T05:37:47.645Z,25.43
2022-12-31T05:40:16.091Z,22.30
2022-12-31T05:42:44.694Z,23.33
2022-12-31T05:45:15.460Z,24.33
2022-12-31T05:47:45.704Z,24.10
2022-12-31T05:50:16.704Z,22.70
2022-12-31T05:52:48.130Z,22.23
2022-12-31T05:55:16.647Z,22.30
2022-12-31T05:57:45.129Z,22.73
2022-12-31T06:00:14.570Z,22.50
2022-12-31T06:02:45.366Z,21.10
2022-12-31T06:05:14.062Z,21.27
2022-12-31T06:07:42.499Z,20.30
2022-12-31T06:10:11.171Z,21.00
2022-12-31T06:12:39.723Z,19.77
2022-12-31T06:15:10.194Z,20.70
2022-12-31T06:17:38.756Z,21.73
2022-12-31T06:20:13.340Z,20.47
2022-12-31T06:22:43.092Z,20.60
2022-12-31T06:25:11.828Z,19.30
2022-12-31T06:27:40.829Z,20.67
2022-12-31T06:30:11.061Z,20.47
2022-12-31T06:32:42.447Z,20.80
2022-12-31T06:35:13.172Z,19.93
2022-12-31T06:37:41.866Z,21.20
2022-12-31T06:40:12.792Z,20.80
2022-12-31T06:42:42.320Z,19.90
2022-12-31T06:45:11.525Z,19.97
2022-12-31T06:47:39.963Z,20.10
2022-12-31T06:50:09.504Z,17.50
2022-12-31T06:52:39.436Z,18.80
2022-12-31T06:55:09.480Z,18.43
2022-12-31T06:57:38.540Z,17.70
2022-12-31T07:00:08.462Z,18.77
2022-12-31T07:03:06.275Z,18.33
2022-12-31T07:05:45.575Z,17.73
2022-12-31T07:08:28.749Z,17.70
2022-12-31T07:11:02.746Z,16.80
2022-12-31T07:13:50.503Z,17.70
2022-12-31T07:16:36.232Z,18.00
2022-12-31T07:19:23.824Z,16.70
2022-12-31T07:21:54.303Z,17.70
2022-12-31T07:24:25.637Z,16.60
2022-12-31T07:27:11.841Z,16.87
2022-12-31T07:30:00.749Z,16.83
2022-12-31T07:32:55.349Z,15.90
2022-12-31T07:35:34.993Z,14.40
2022-12-31T07:38:13.584Z,13.17
2022-12-31T07:40:57.693Z,11.60
2022-12-31T07:43:34.253Z,12.00
2022-12-31T07:46:12.922Z,11.80
2022-12-31T07:48:41.822Z,12.10
2022-12-31T07:51:12.410Z,13.90
2022-12-31T07:53:41.180Z,14.03
2022-12-31T07:56:11.450Z,13.83
2022-12-31T07:58:55.500Z,13.47
2022-12-31T08:01:33.587Z,14.23
2022-12-31T08:04:10.837Z,14.43
2022-12-31T08:06:51.280Z,14.07
2022-12-31T08:09:36.804Z,13.33
2022-12-31T08:12:08.885Z,13.90
2022-12-31T08:14:43.681Z,12.40
2022-12-31T08:17:14.963Z,14.40
2022-12-31T08:19:45.776Z,13.77
2022-12-31T08:22:39.932Z,12.30
2022-12-31T08:25:23.632Z,13.90
2022-12-31T08:28:03.101Z,12.53
2022-12-31T08:30:39.337Z,13.07
2022-12-31T08:33:14.358Z,13.33
2022-12-31T08:35:56.977Z,13.40
2022-12-31T08:38:32.642Z,13.53
2022-12-31T08:41:10.942Z,14.30
2022-12-31T08:43:51.347Z,17.00
2022-12-31T08:46:26.692Z,16.10
2022-12-31T08:48:55.619Z,12.60
2022-12-31T08:51:28.505Z,14.53
2022-12-31T08:53:57.527Z,14.83
2022-12-31T08:56:34.936Z,15.83
2022-12-31T08:59:20.943Z,17.80
2022-12-31T09:02:15.532Z,17.90
2022-12-31T09:04:53.760Z,16.40
2022-12-31T09:07:31.551Z,17.17
2022-12-31T09:10:08.040Z,17.37
2022-12-31T09:12:42.535Z,19.63
2022-12-31T09:15:16.605Z,18.80
2022-12-31T09:17:47.216Z,18.80
2022-12-31T09:20:20.597Z,19.43
2022-12-31T09:22:50.813Z,19.47
2022-12-31T09:25:22.385Z,22.50
2022-12-31T09:28:11.049Z,23.20
2022-12-31T09:30:47.862Z,24.90
2022-12-31T09:33:27.386Z,27.67
2022-12-31T09:36:03.235Z,28.27
2022-12-31T09:38:38.088Z,26.57
2022-12-31T09:41:14.785Z,31.30
2022-12-31T09:44:30.928Z,28.73
2022-12-31T09:47:46.025Z,27.23
2022-12-31T09:50:37.706Z,26.10
2022-12-31T09:53:36.899Z,28.83
2022-12-31T09:56:12.650Z,30.73
2022-12-31T09:58:49.797Z,31.77
2022-12-31T10:01:27.965Z,31.67
2022-12-31T10:04:26.809Z,29.73
2022-12-31T10:07:11.132Z,28.37
2022-12-31T10:09:55.395Z,30.33
2022-12-31T10:12:51.170Z,29.00
2022-12-31T10:16:04.310Z,28.47
2022-12-31T10:18:48.036Z,31.97
2022-12-31T10:21:36.254Z,29.97
2022-12-31T10:24:21.456Z,29.30
2022-12-31T10:27:00.558Z,27.70
2022-12-31T10:29:42.174Z,30.70
2022-12-31T10:32:18.869Z,30.23
2022-12-31T10:35:02.737Z,30.10
2022-12-31T10:37:40.963Z,28.87
2022-12-31T10:40:23.315Z,30.33
2022-12-31T10:43:35.008Z,29.30
2022-12-31T10:46:35.671Z,32.60
2022-12-31T10:49:42.583Z,30.70
2022-12-31T10:52:53.315Z,28.47
2022-12-31T10:55:58.686Z,31.47
2022-12-31T10:59:01.446Z,28.23
2022-12-31T11:01:40.519Z,28.97
2022-12-31T11:04:47.994Z,27.90
2022-12-31T11:08:02.233Z,28.40
2022-12-31T11:11:08.178Z,28.53
2022-12-31T11:14:08.355Z,27.57
2022-12-31T11:17:08.109Z,29.77
2022-12-31T11:19:47.536Z,30.47
2022-12-31T11:22:41.853Z,30.43
2022-12-31T11:25:24.089Z,29.37
2022-12-31T11:28:22.250Z,29.67
2022-12-31T11:31:07.669Z,29.73
2022-12-31T11:33:50.600Z,27.97
2022-12-31T11:36:34.219Z,27.40
2022-12-31T11:39:24.608Z,29.67
2022-12-31T11:42:04.289Z,28.20
2022-12-31T11:44:41.671Z,29.37
2022-12-31T11:47:24.251Z,28.63
2022-12-31T11:50:04.338Z,28.70
2022-12-31T11:52:56.113Z,29.23
2022-12-31T11:55:54.150Z,26.60
2022-12-31T11:58:28.669Z,25.60
2022-12-31T12:01:02.028Z,26.53
2022-12-31T12:03:30.899Z,27.23
2022-12-31T12:06:02.557Z,28.37
2022-12-31T12:08:33.795Z,28.20
2022-12-31T12:11:06.488Z,30.33
2022-12-31T12:13:35.429Z,28.03
2022-12-31T12:16:09.155Z,28.43
2022-12-31T12:18:43.693Z,29.17
2022-12-31T12:21:14.805Z,29.30
2022-12-31T12:23:54.882Z,29.23
2022-12-31T12:26:35.217Z,29.13
2022-12-31T12:29:11.289Z,26.87
2022-12-31T12:31:41.230Z,28.50
2022-12-31T12:34:24.349Z,27.03
2022-12-31T12:36:52.961Z,28.43
2022-12-31T12:39:23.957Z,29.40
2022-12-31T12:42:03.776Z,28.50
2022-12-31T12:44:32.814Z,29.17
2022-12-31T12:47:04.526Z,30.17
2022-12-31T12:49:39.383Z,31.33
2022-12-31T12:52:50.512Z,31.70
2022-12-31T12:55:26.157Z,27.63
2022-12-31T12:58:03.773Z,28.60
2022-12-31T13:00:39.346Z,30.10
2022-12-31T13:03:23.227Z,28.63
2022-12-31T13:06:07.397Z,29.60
2022-12-31T13:08:55.655Z,27.53
2022-12-31T13:11:38.822Z,28.97
2022-12-31T13:14:23.201Z,28.63
2022-12-31T13:17:00.087Z,27.93
2022-12-31T13:19:43.484Z,28.40
2022-12-31T13:22:19.028Z,27.40
2022-12-31T13:24:57.666Z,31.10
2022-12-31T13:27:31.646Z,30.83
2022-12-31T13:30:08.222Z,30.53
2022-12-31T13:32:41.984Z,30.93
2022-12-31T13:35:25.606Z,29.40
2022-12-31T13:38:05.275Z,31.70
2022-12-31T13:40:49.208Z,31.40
2022-12-31T13:43:23.466Z,29.23
2022-12-31T13:46:01.830Z,31.43
2022-12-31T13:48:37.226Z,31.37
2022-12-31T13:51:17.134Z,32.00
2022-12-31T13:53:55.861Z,31.10
2022-12-31T13:56:28.790Z,29.77
2022-12-31T13:59:02.769Z,30.53
2022-12-31T14:01:35.689Z,32.33
2022-12-31T14:04:09.735Z,32.63
2022-12-31T14:06:45.760Z,32.27
2022-12-31T14:09:20.039Z,32.30
2022-12-31T14:12:13.952Z,32.60
2022-12-31T14:14:54.377Z,30.93
2022-12-31T14:17:29.618Z,29.77
2022-12-31T14:20:07.809Z,33.97
2022-12-31T14:22:46.211Z,32.60
2022-12-31T14:25:21.022Z,33.10
2022-12-31T14:27:52.058Z,30.37
2022-12-31T14:30:22.892Z,29.97
2022-12-31T14:33:15.996Z,33.10
2022-12-31T14:35:57.260Z,32.30
2022-12-31T14:38:37.514Z,33.13
2022-12-31T14:41:21.655Z,36.87
2022-12-31T14:44:03.318Z,33.83
2022-12-31T14:46:44.145Z,34.00
2022-12-31T14:49:27.788Z,32.50
2022-12-31T14:51:56.397Z,32.27
2022-12-31T14:54:31.498Z,32.83
2022-12-31T14:57:11.489Z,35.53
2022-12-31T14:59:42.424Z,34.53
2022-12-31T15:02:28.153Z,34.80
2022-12-31T15:05:15.827Z,33.33
2022-12-31T15:07:54.476Z,32.07
2022-12-31T15:10:36.475Z,34.23
2022-12-31T15:13:08.452Z,34.97
2022-12-31T15:15:56.360Z,35.50
2022-12-31T15:18:54.614Z,36.27
2022-12-31T15:21:37.751Z,43.63
2022-12-31T15:24:19.596Z,40.23
2022-12-31T15:26:55.143Z,36.17
2022-12-31T15:29:30.039Z,35.23
2022-12-31T15:32:00.344Z,35.17
2022-12-31T15:34:32.956Z,37.13
2022-12-31T15:37:03.567Z,33.60
2022-12-31T15:39:44.443Z,35.97
2022-12-31T15:42:47.264Z,38.00
2022-12-31T15:45:25.555Z,39.33
2022-12-31T15:47:57.928Z,43.40
2022-12-31T15:50:27.015Z,45.90
2022-12-31T15:52:57.523Z,46.93
2022-12-31T15:55:30.358Z,46.70
2022-12-31T15:58:06.157Z,40.07
2022-12-31T16:00:52.049Z,41.43
2022-12-31T16:03:24.996Z,41.17
2022-12-31T16:05:56.353Z,40.13
2022-12-31T16:08:29.969Z,39.40
2022-12-31T16:10:59.497Z,35.30
2022-12-31T16:13:30.650Z,37.13
2022-12-31T16:16:03.148Z,35.30
2022-12-31T16:18:39.505Z,33.87
2022-12-31T16:21:23.607Z,34.03
2022-12-31T16:23:52.994Z,35.77
2022-12-31T16:26:21.823Z,33.53
2022-12-31T16:28:52.907Z,34.67
2022-12-31T16:31:21.918Z,32.70
2022-12-31T16:33:51.229Z,34.20
2022-12-31T16:36:21.680Z,33.23
2022-12-31T16:38:51.038Z,33.50
2022-12-31T16:41:24.962Z,31.93
2022-12-31T16:43:55.157Z,35.73
2022-12-31T16:46:27.250Z,33.90
2022-12-31T16:48:58.087Z,31.90
2022-12-31T16:51:35.467Z,33.33
2022-12-31T16:54:04.812Z,35.83
2022-12-31T16:56:36.249Z,35.23
2022-12-31T16:59:13.277Z,31.63
2022-12-31T17:01:43.115Z,34.90
2022-12-31T17:04:13.285Z,36.40
2022-12-31T17:06:44.267Z,34.03
2022-12-31T17:09:15.547Z,35.00
2022-12-31T17:11:45.514Z,36.63
2022-12-31T17:14:19.487Z,36.50
2022-12-31T17:17:03.064Z,37.20
2022-12-31T17:19:37.295Z,33.73
2022-12-31T17:22:14.187Z,32.00
2022-12-31T17:24:43.194Z,34.17
2022-12-31T17:27:12.073Z,36.30
2022-12-31T17:29:42.009Z,39.67
2022-12-31T17:32:29.579Z,38.10
2022-12-31T17:34:58.474Z,36.23
2022-12-31T17:37:28.826Z,36.17
2022-12-31T17:40:24.384Z,37.80
2022-12-31T17:42:50.337Z,39.97
2022-12-31T17:45:22.844Z,38.73
2022-12-31T17:47:53.955Z,37.23
2022-12-31T17:50:25.170Z,38.17
2022-12-31T17:52:59.489Z,36.53
2022-12-31T17:55:29.518Z,41.00
2022-12-31T17:58:05.991Z,40.80
2022-12-31T18:00:41.193Z,40.33
2022-12-31T18:03:09.831Z,38.50
2022-12-31T18:05:39.509Z,39.33
2022-12-31T18:08:08.045Z,40.73
2022-12-31T18:10:39.011Z,41.30
2022-12-31T18:13:14.404Z,38.60
2022-12-31T18:15:44.796Z,38.23
2022-12-31T18:18:24.816Z,36.63
2022-12-31T18:20:58.050Z,35.53
2022-12-31T18:23:31.717Z,36.90
2022-12-31T18:26:03.198Z,38.27
2022-12-31T18:28:31.803Z,39.67
2022-12-31T18:31:01.685Z,40.10
2022-12-31T18:33:32.033Z,40.00
2022-12-31T18:36:09.711Z,41.20
2022-12-31T18:38:39.361Z,44.03
2022-12-31T18:41:14.102Z,45.30
2022-12-31T18:43:42.558Z,42.90
2022-12-31T18:46:15.765Z,44.70
2022-12-31T18:48:44.797Z,43.30
2022-12-31T18:51:15.677Z,42.87
2022-12-31T18:53:44.413Z,45.40
2022-12-31T18:56:16.601Z,49.90
2022-12-31T18:58:46.200Z,68.37
2022-12-31T19:01:28.619Z,64.53
2022-12-31T19:03:58.347Z,63.27
2022-12-31T19:06:27.087Z,54.90
2022-12-31T19:08:56.049Z,48.10
2022-12-31T19:11:24.834Z,50.83
2022-12-31T19:13:53.305Z,50.23
2022-12-31T19:16:23.432Z,47.60
2022-12-31T19:18:52.062Z,48.03
2022-12-31T19:21:23.825Z,48.00
2022-12-31T19:23:52.674Z,44.10
2022-12-31T19:26:23.287Z,44.10
2022-12-31T19:28:54.797Z,45.00
2022-12-31T19:31:26.985Z,49.40
2022-12-31T19:33:55.511Z,49.43
2022-12-31T19:36:25.328Z,48.30
2022-12-31T19:38:53.711Z,48.97
2022-12-31T19:41:22.158Z,52.17
2022-12-31T19:43:50.749Z,52.47
2022-12-31T19:46:20.091Z,52.60
2022-12-31T19:48:51.481Z,51.67
2022-12-31T19:51:21.934Z,50.33
2022-12-31T19:53:50.895Z,49.50
2022-12-31T19:56:21.544Z,50.47
2022-12-31T19:58:50.016Z,53.20
2022-12-31T20:01:22.366Z,51.53
2022-12-31T20:03:55.065Z,50.50
2022-12-31T20:06:23.768Z,55.30
2022-12-31T20:08:52.212Z,50.73
2022-12-31T20:11:22.706Z,53.63
2022-12-31T20:13:52.398Z,55.77
2022-12-31T20:16:22.965Z,55.70
2022-12-31T20:18:52.925Z,53.97
2022-12-31T20:21:23.399Z,49.93
2022-12-31T20:23:53.350Z,52.40
2022-12-31T20:26:23.701Z,51.33
2022-12-31T20:28:52.396Z,55.87
2022-12-31T20:31:24.560Z,50.17
2022-12-31T20:33:54.993Z,53.53
2022-12-31T20:36:23.934Z,49.87
2022-12-31T20:38:52.444Z,52.17
2022-12-31T20:41:22.831Z,50.00
2022-12-31T20:43:51.397Z,51.50
2022-12-31T20:46:22.527Z,52.80
2022-12-31T20:48:52.551Z,50.77
2022-12-31T20:51:23.663Z,53.20
2022-12-31T20:53:55.199Z,53.07
2022-12-31T20:56:24.488Z,51.50
2022-12-31T20:58:53.207Z,51.67
2022-12-31T21:01:22.218Z,51.93
2022-12-31T21:04:07.102Z,51.70
2022-12-31T21:06:39.947Z,51.97
2022-12-31T21:09:09.347Z,50.50
2022-12-31T21:11:55.190Z,52.30
2022-12-31T21:14:23.707Z,54.00
2022-12-31T21:16:52.226Z,53.70
2022-12-31T21:19:20.701Z,52.30
2022-12-31T21:21:50.580Z,53.87
2022-12-31T21:24:23.781Z,52.10
2022-12-31T21:26:54.727Z,51.40
2022-12-31T21:29:23.479Z,50.90
2022-12-31T21:31:51.896Z,51.70
2022-12-31T21:34:20.359Z,50.67
2022-12-31T21:36:50.290Z,53.10
2022-12-31T21:39:18.808Z,53.60
2022-12-31T21:41:53.114Z,57.10
2022-12-31T21:44:23.100Z,55.63
2022-12-31T21:47:33.325Z,53.57
2022-12-31T21:49:46.144Z,57.07
2022-12-31T21:52:33.661Z,54.07
2022-12-31T21:55:35.748Z,55.97
2022-12-31T22:01:10.358Z,53.53
2022-12-31T22:03:41.684Z,55.20
2022-12-31T22:06:13.140Z,55.87
2022-12-31T22:08:44.371Z,54.47
2022-12-31T22:11:14.360Z,53.17
2022-12-31T22:13:43.493Z,56.50
2022-12-31T22:16:14.145Z,56.27
2022-12-31T22:18:44.329Z,55.50
2022-12-31T22:21:19.923Z,56.77
2022-12-31T22:23:52.515Z,58.50
2022-12-31T22:26:22.568Z,58.60
2022-12-31T22:28:51.070Z,58.20
2022-12-31T22:31:22.751Z,60.07
2022-12-31T22:33:51.403Z,60.03
2022-12-31T22:36:21.985Z,58.53
2022-12-31T22:38:55.575Z,58.50
2022-12-31T22:41:25.283Z,58.00
2022-12-31T22:44:03.243Z,58.33
2022-12-31T22:46:33.252Z,57.00
2022-12-31T22:49:03.171Z,54.60
2022-12-31T22:51:57.075Z,58.10
2022-12-31T22:54:22.580Z,58.07
2022-12-31T22:56:51.194Z,56.50
2022-12-31T22:59:19.710Z,59.57
2022-12-31T23:01:48.391Z,56.27
2022-12-31T23:04:17.262Z,57.43
2022-12-31T23:06:47.335Z,57.57
2022-12-31T23:09:34.960Z,71.70
2022-12-31T23:12:06.162Z,61.83
2022-12-31T23:14:52.318Z,118.40
2022-12-31T23:17:41.550Z,84.03
2022-12-31T23:20:32.022Z,73.00
2022-12-31T23:23:10.068Z,65.60
2022-12-31T23:25:41.536Z,66.27
2022-12-31T23:28:14.240Z,73.07
2022-12-31T23:30:43.748Z,71.57
2022-12-31T23:33:18.094Z,77.17
2022-12-31T23:35:47.648Z,86.77
2022-12-31T23:38:18.943Z,92.00
2022-12-31T23:40:47.606Z,96.80
2022-12-31T23:43:23.521Z,103.40
2022-12-31T23:45:52.534Z,103.80
2022-12-31T23:48:21.073Z,112.67
2022-12-31T23:50:53.798Z,107.00
2022-12-31T23:53:22.998Z,98.87
2022-12-31T23:55:51.723Z,103.40
2022-12-31T23:58:22.187Z,104.20
